sensor_id;sensor_type;location;lat;lon;timestamp;P1;durP1;ratioP1;P2;durP2;ratioP2
20653;SDS011;21083;50.898;4.902;2024-01-11T00:00:18;49.25;;;20.38;;
20653;SDS011;21083;50.898;4.902;2024-01-11T00:02:45;45.67;;;19.92;;
20653;SDS011;21083;50.898;4.902;2024-01-11T00:05:12;41.50;;;17.92;;
20653;SDS011;21083;50.898;4.902;2024-01-11T00:07:40;45.30;;;19.20;;
20653;SDS011;21083;50.898;4.902;2024-01-11T00:10:08;45.50;;;19.15;;
20653;SDS011;21083;50.898;4.902;2024-01-11T00:12:35;42.72;;;17.63;;
20653;SDS011;21083;50.898;4.902;2024-01-11T00:15:02;43.50;;;19.15;;
20653;SDS011;21083;50.898;4.902;2024-01-11T00:17:29;43.78;;;17.52;;
20653;SDS011;21083;50.898;4.902;2024-01-11T00:19:56;44.63;;;18.48;;
20653;SDS011;21083;50.898;4.902;2024-01-11T00:22:23;45.00;;;18.63;;
20653;SDS011;21083;50.898;4.902;2024-01-11T00:24:52;44.03;;;18.58;;
20653;SDS011;21083;50.898;4.902;2024-01-11T00:27:19;44.75;;;18.45;;
20653;SDS011;21083;50.898;4.902;2024-01-11T00:29:46;42.88;;;18.08;;
20653;SDS011;21083;50.898;4.902;2024-01-11T00:32:13;51.30;;;18.75;;
20653;SDS011;21083;50.898;4.902;2024-01-11T00:34:40;41.20;;;17.85;;
20653;SDS011;21083;50.898;4.902;2024-01-11T00:37:07;46.83;;;18.67;;
20653;SDS011;21083;50.898;4.902;2024-01-11T00:39:34;38.72;;;17.65;;
20653;SDS011;21083;50.898;4.902;2024-01-11T00:42:02;43.90;;;17.35;;
20653;SDS011;21083;50.898;4.902;2024-01-11T00:44:29;47.55;;;18.42;;
20653;SDS011;21083;50.898;4.902;2024-01-11T00:46:56;44.15;;;18.02;;
20653;SDS011;21083;50.898;4.902;2024-01-11T00:49:23;45.38;;;19.77;;
20653;SDS011;21083;50.898;4.902;2024-01-11T00:51:50;50.08;;;18.25;;
20653;SDS011;21083;50.898;4.902;2024-01-11T00:54:17;44.17;;;18.33;;
20653;SDS011;21083;50.898;4.902;2024-01-11T00:56:45;49.20;;;20.13;;
20653;SDS011;21083;50.898;4.902;2024-01-11T00:59:12;39.92;;;18.75;;
20653;SDS011;21083;50.898;4.902;2024-01-11T01:01:39;43.53;;;18.10;;
20653;SDS011;21083;50.898;4.902;2024-01-11T01:04:06;45.67;;;18.98;;
20653;SDS011;21083;50.898;4.902;2024-01-11T01:06:33;47.25;;;18.45;;
20653;SDS011;21083;50.898;4.902;2024-01-11T01:09:00;46.20;;;19.70;;
20653;SDS011;21083;50.898;4.902;2024-01-11T01:11:27;45.55;;;19.58;;
20653;SDS011;21083;50.898;4.902;2024-01-11T01:13:54;46.95;;;18.45;;
20653;SDS011;21083;50.898;4.902;2024-01-11T01:16:22;49.72;;;18.33;;
20653;SDS011;21083;50.898;4.902;2024-01-11T01:18:49;52.83;;;19.02;;
20653;SDS011;21083;50.898;4.902;2024-01-11T01:21:16;54.60;;;19.38;;
20653;SDS011;21083;50.898;4.902;2024-01-11T01:23:43;52.85;;;20.13;;
20653;SDS011;21083;50.898;4.902;2024-01-11T01:26:10;45.58;;;18.65;;
20653;SDS011;21083;50.898;4.902;2024-01-11T01:28:37;48.00;;;19.20;;
20653;SDS011;21083;50.898;4.902;2024-01-11T01:31:05;44.60;;;18.30;;
20653;SDS011;21083;50.898;4.902;2024-01-11T01:33:33;42.80;;;18.75;;
20653;SDS011;21083;50.898;4.902;2024-01-11T01:36:00;42.58;;;18.67;;
20653;SDS011;21083;50.898;4.902;2024-01-11T01:38:27;44.83;;;18.08;;
20653;SDS011;21083;50.898;4.902;2024-01-11T01:40:55;43.15;;;18.75;;
20653;SDS011;21083;50.898;4.902;2024-01-11T01:43:22;47.45;;;18.52;;
20653;SDS011;21083;50.898;4.902;2024-01-11T01:45:49;44.72;;;19.23;;
20653;SDS011;21083;50.898;4.902;2024-01-11T01:48:16;44.42;;;19.48;;
20653;SDS011;21083;50.898;4.902;2024-01-11T01:50:45;42.22;;;19.20;;
20653;SDS011;21083;50.898;4.902;2024-01-11T01:53:16;40.08;;;18.88;;
20653;SDS011;21083;50.898;4.902;2024-01-11T01:55:44;38.28;;;17.52;;
20653;SDS011;21083;50.898;4.902;2024-01-11T01:58:11;40.38;;;17.67;;
20653;SDS011;21083;50.898;4.902;2024-01-11T02:00:39;46.45;;;18.45;;
20653;SDS011;21083;50.898;4.902;2024-01-11T02:03:07;40.58;;;18.38;;
20653;SDS011;21083;50.898;4.902;2024-01-11T02:05:35;48.33;;;18.75;;
20653;SDS011;21083;50.898;4.902;2024-01-11T02:08:05;44.40;;;17.83;;
20653;SDS011;21083;50.898;4.902;2024-01-11T02:10:34;51.60;;;19.27;;
20653;SDS011;21083;50.898;4.902;2024-01-11T02:13:01;43.15;;;18.33;;
20653;SDS011;21083;50.898;4.902;2024-01-11T02:15:29;44.47;;;17.92;;
20653;SDS011;21083;50.898;4.902;2024-01-11T02:17:56;46.35;;;18.23;;
20653;SDS011;21083;50.898;4.902;2024-01-11T02:20:23;42.78;;;18.58;;
20653;SDS011;21083;50.898;4.902;2024-01-11T02:22:52;42.53;;;18.20;;
20653;SDS011;21083;50.898;4.902;2024-01-11T02:25:25;43.13;;;18.10;;
20653;SDS011;21083;50.898;4.902;2024-01-11T02:27:52;44.25;;;18.20;;
20653;SDS011;21083;50.898;4.902;2024-01-11T02:30:19;45.05;;;19.40;;
20653;SDS011;21083;50.898;4.902;2024-01-11T02:32:47;46.80;;;18.88;;
20653;SDS011;21083;50.898;4.902;2024-01-11T02:35:15;41.07;;;18.23;;
20653;SDS011;21083;50.898;4.902;2024-01-11T02:37:42;44.40;;;18.88;;
20653;SDS011;21083;50.898;4.902;2024-01-11T02:40:10;43.50;;;18.27;;
20653;SDS011;21083;50.898;4.902;2024-01-11T02:42:41;46.72;;;19.00;;
20653;SDS011;21083;50.898;4.902;2024-01-11T02:45:08;44.60;;;19.73;;
20653;SDS011;21083;50.898;4.902;2024-01-11T02:47:37;36.87;;;17.33;;
20653;SDS011;21083;50.898;4.902;2024-01-11T02:50:04;48.78;;;18.85;;
20653;SDS011;21083;50.898;4.902;2024-01-11T02:52:32;44.40;;;18.93;;
20653;SDS011;21083;50.898;4.902;2024-01-11T02:54:59;46.57;;;19.43;;
20653;SDS011;21083;50.898;4.902;2024-01-11T02:57:26;45.87;;;18.73;;
20653;SDS011;21083;50.898;4.902;2024-01-11T02:59:54;48.77;;;20.20;;
20653;SDS011;21083;50.898;4.902;2024-01-11T03:02:21;54.13;;;19.60;;
20653;SDS011;21083;50.898;4.902;2024-01-11T03:04:48;47.27;;;19.93;;
20653;SDS011;21083;50.898;4.902;2024-01-11T03:07:15;44.53;;;20.60;;
20653;SDS011;21083;50.898;4.902;2024-01-11T03:09:42;42.60;;;20.73;;
20653;SDS011;21083;50.898;4.902;2024-01-11T03:12:09;42.88;;;19.10;;
20653;SDS011;21083;50.898;4.902;2024-01-11T03:14:36;45.95;;;20.08;;
20653;SDS011;21083;50.898;4.902;2024-01-11T03:17:04;50.13;;;19.80;;
20653;SDS011;21083;50.898;4.902;2024-01-11T03:19:31;48.43;;;20.90;;
20653;SDS011;21083;50.898;4.902;2024-01-11T03:21:58;47.97;;;19.80;;
20653;SDS011;21083;50.898;4.902;2024-01-11T03:24:28;46.83;;;21.15;;
20653;SDS011;21083;50.898;4.902;2024-01-11T03:26:55;49.03;;;18.80;;
20653;SDS011;21083;50.898;4.902;2024-01-11T03:29:22;51.13;;;21.03;;
20653;SDS011;21083;50.898;4.902;2024-01-11T03:31:49;49.17;;;20.20;;
20653;SDS011;21083;50.898;4.902;2024-01-11T03:34:17;51.40;;;19.93;;
20653;SDS011;21083;50.898;4.902;2024-01-11T03:36:44;45.85;;;19.80;;
20653;SDS011;21083;50.898;4.902;2024-01-11T03:39:11;42.40;;;19.30;;
20653;SDS011;21083;50.898;4.902;2024-01-11T03:41:42;44.60;;;20.50;;
20653;SDS011;21083;50.898;4.902;2024-01-11T03:44:09;44.73;;;20.10;;
20653;SDS011;21083;50.898;4.902;2024-01-11T03:46:37;43.53;;;20.13;;
20653;SDS011;21083;50.898;4.902;2024-01-11T03:49:04;51.67;;;20.67;;
20653;SDS011;21083;50.898;4.902;2024-01-11T03:51:34;46.95;;;19.45;;
20653;SDS011;21083;50.898;4.902;2024-01-11T03:54:01;43.13;;;19.95;;
20653;SDS011;21083;50.898;4.902;2024-01-11T03:56:28;43.42;;;20.00;;
20653;SDS011;21083;50.898;4.902;2024-01-11T03:58:55;45.97;;;21.27;;
20653;SDS011;21083;50.898;4.902;2024-01-11T04:01:22;43.97;;;20.90;;
20653;SDS011;21083;50.898;4.902;2024-01-11T04:03:49;47.20;;;20.67;;
20653;SDS011;21083;50.898;4.902;2024-01-11T04:06:19;47.20;;;19.40;;
20653;SDS011;21083;50.898;4.902;2024-01-11T04:08:50;47.73;;;20.03;;
20653;SDS011;21083;50.898;4.902;2024-01-11T04:11:17;49.23;;;21.43;;
20653;SDS011;21083;50.898;4.902;2024-01-11T04:13:44;46.05;;;20.67;;
20653;SDS011;21083;50.898;4.902;2024-01-11T04:16:11;43.97;;;20.08;;
20653;SDS011;21083;50.898;4.902;2024-01-11T04:18:38;46.72;;;20.35;;
20653;SDS011;21083;50.898;4.902;2024-01-11T04:21:05;49.77;;;20.47;;
20653;SDS011;21083;50.898;4.902;2024-01-11T04:23:32;45.50;;;20.50;;
20653;SDS011;21083;50.898;4.902;2024-01-11T04:26:00;46.25;;;20.08;;
20653;SDS011;21083;50.898;4.902;2024-01-11T04:28:27;46.00;;;20.17;;
20653;SDS011;21083;50.898;4.902;2024-01-11T04:30:54;41.90;;;19.33;;
20653;SDS011;21083;50.898;4.902;2024-01-11T04:33:21;50.40;;;21.17;;
20653;SDS011;21083;50.898;4.902;2024-01-11T04:35:48;41.57;;;18.47;;
20653;SDS011;21083;50.898;4.902;2024-01-11T04:38:15;51.23;;;20.30;;
20653;SDS011;21083;50.898;4.902;2024-01-11T04:40:42;50.78;;;20.80;;
20653;SDS011;21083;50.898;4.902;2024-01-11T04:43:10;44.90;;;18.90;;
20653;SDS011;21083;50.898;4.902;2024-01-11T04:45:37;45.85;;;19.70;;
20653;SDS011;21083;50.898;4.902;2024-01-11T04:48:04;49.22;;;21.13;;
20653;SDS011;21083;50.898;4.902;2024-01-11T04:50:32;51.20;;;20.33;;
20653;SDS011;21083;50.898;4.902;2024-01-11T04:52:59;46.70;;;20.08;;
20653;SDS011;21083;50.898;4.902;2024-01-11T04:55:26;54.40;;;21.48;;
20653;SDS011;21083;50.898;4.902;2024-01-11T04:57:52;49.72;;;20.80;;
20653;SDS011;21083;50.898;4.902;2024-01-11T05:00:21;43.78;;;19.35;;
20653;SDS011;21083;50.898;4.902;2024-01-11T05:02:48;51.72;;;20.90;;
20653;SDS011;21083;50.898;4.902;2024-01-11T05:05:15;48.08;;;20.80;;
20653;SDS011;21083;50.898;4.902;2024-01-11T05:07:42;49.00;;;20.45;;
20653;SDS011;21083;50.898;4.902;2024-01-11T05:10:09;49.38;;;20.90;;
20653;SDS011;21083;50.898;4.902;2024-01-11T05:12:36;50.53;;;21.35;;
20653;SDS011;21083;50.898;4.902;2024-01-11T05:15:03;46.80;;;21.17;;
20653;SDS011;21083;50.898;4.902;2024-01-11T05:17:34;52.10;;;21.17;;
20653;SDS011;21083;50.898;4.902;2024-01-11T05:20:01;50.30;;;21.15;;
20653;SDS011;21083;50.898;4.902;2024-01-11T05:22:28;48.45;;;21.00;;
20653;SDS011;21083;50.898;4.902;2024-01-11T05:24:55;51.78;;;21.30;;
20653;SDS011;21083;50.898;4.902;2024-01-11T05:27:22;51.50;;;19.48;;
20653;SDS011;21083;50.898;4.902;2024-01-11T05:29:49;47.87;;;20.73;;
20653;SDS011;21083;50.898;4.902;2024-01-11T05:32:16;53.55;;;21.55;;
20653;SDS011;21083;50.898;4.902;2024-01-11T05:34:44;51.50;;;21.90;;
20653;SDS011;21083;50.898;4.902;2024-01-11T05:37:11;51.22;;;21.70;;
20653;SDS011;21083;50.898;4.902;2024-01-11T05:39:38;48.42;;;21.10;;
20653;SDS011;21083;50.898;4.902;2024-01-11T05:42:05;53.05;;;21.48;;
20653;SDS011;21083;50.898;4.902;2024-01-11T05:44:32;46.58;;;20.27;;
20653;SDS011;21083;50.898;4.902;2024-01-11T05:46:59;44.67;;;20.70;;
20653;SDS011;21083;50.898;4.902;2024-01-11T05:49:26;47.83;;;20.42;;
20653;SDS011;21083;50.898;4.902;2024-01-11T05:51:55;46.38;;;20.52;;
20653;SDS011;21083;50.898;4.902;2024-01-11T05:54:22;56.47;;;23.02;;
20653;SDS011;21083;50.898;4.902;2024-01-11T05:56:49;49.08;;;21.13;;
20653;SDS011;21083;50.898;4.902;2024-01-11T05:59:21;50.63;;;21.10;;
20653;SDS011;21083;50.898;4.902;2024-01-11T06:01:48;48.50;;;20.15;;
20653;SDS011;21083;50.898;4.902;2024-01-11T06:04:15;51.00;;;21.80;;
20653;SDS011;21083;50.898;4.902;2024-01-11T06:06:42;53.75;;;21.23;;
20653;SDS011;21083;50.898;4.902;2024-01-11T06:09:11;51.78;;;22.00;;
20653;SDS011;21083;50.898;4.902;2024-01-11T06:11:38;43.42;;;20.05;;
20653;SDS011;21083;50.898;4.902;2024-01-11T06:14:05;52.78;;;21.60;;
20653;SDS011;21083;50.898;4.902;2024-01-11T06:16:32;53.38;;;22.20;;
20653;SDS011;21083;50.898;4.902;2024-01-11T06:18:59;49.58;;;21.35;;
20653;SDS011;21083;50.898;4.902;2024-01-11T06:21:26;58.38;;;22.95;;
20653;SDS011;21083;50.898;4.902;2024-01-11T06:23:53;48.50;;;22.23;;
20653;SDS011;21083;50.898;4.902;2024-01-11T06:26:22;48.80;;;22.05;;
20653;SDS011;21083;50.898;4.902;2024-01-11T06:28:48;51.22;;;21.70;;
20653;SDS011;21083;50.898;4.902;2024-01-11T06:31:15;51.40;;;22.73;;
20653;SDS011;21083;50.898;4.902;2024-01-11T06:33:43;53.05;;;22.35;;
20653;SDS011;21083;50.898;4.902;2024-01-11T06:36:10;52.83;;;22.38;;
20653;SDS011;21083;50.898;4.902;2024-01-11T06:38:37;58.65;;;23.77;;
20653;SDS011;21083;50.898;4.902;2024-01-11T06:41:04;54.88;;;23.77;;
20653;SDS011;21083;50.898;4.902;2024-01-11T06:43:32;63.33;;;24.08;;
20653;SDS011;21083;50.898;4.902;2024-01-11T06:46:02;57.38;;;23.30;;
20653;SDS011;21083;50.898;4.902;2024-01-11T06:48:29;51.77;;;23.87;;
20653;SDS011;21083;50.898;4.902;2024-01-11T06:50:56;56.80;;;24.60;;
20653;SDS011;21083;50.898;4.902;2024-01-11T06:53:23;52.90;;;22.92;;
20653;SDS011;21083;50.898;4.902;2024-01-11T06:55:50;56.72;;;24.45;;
20653;SDS011;21083;50.898;4.902;2024-01-11T06:58:20;52.50;;;24.30;;
20653;SDS011;21083;50.898;4.902;2024-01-11T07:00:49;62.58;;;25.23;;
20653;SDS011;21083;50.898;4.902;2024-01-11T07:03:16;53.03;;;22.73;;
20653;SDS011;21083;50.898;4.902;2024-01-11T07:05:44;54.50;;;24.02;;
20653;SDS011;21083;50.898;4.902;2024-01-11T07:08:11;51.90;;;24.65;;
20653;SDS011;21083;50.898;4.902;2024-01-11T07:10:38;57.25;;;24.60;;
20653;SDS011;21083;50.898;4.902;2024-01-11T07:13:06;48.65;;;24.23;;
20653;SDS011;21083;50.898;4.902;2024-01-11T07:15:35;62.53;;;25.30;;
20653;SDS011;21083;50.898;4.902;2024-01-11T07:18:04;56.60;;;24.45;;
20653;SDS011;21083;50.898;4.902;2024-01-11T07:20:31;56.28;;;24.83;;
20653;SDS011;21083;50.898;4.902;2024-01-11T07:22:58;52.25;;;24.27;;
20653;SDS011;21083;50.898;4.902;2024-01-11T07:25:26;60.35;;;25.90;;
20653;SDS011;21083;50.898;4.902;2024-01-11T07:27:53;52.53;;;23.35;;
20653;SDS011;21083;50.898;4.902;2024-01-11T07:30:20;61.72;;;24.55;;
20653;SDS011;21083;50.898;4.902;2024-01-11T07:32:46;54.50;;;25.93;;
20653;SDS011;21083;50.898;4.902;2024-01-11T07:35:15;55.88;;;25.75;;
20653;SDS011;21083;50.898;4.902;2024-01-11T07:37:42;49.97;;;25.27;;
20653;SDS011;21083;50.898;4.902;2024-01-11T07:40:09;60.27;;;25.70;;
20653;SDS011;21083;50.898;4.902;2024-01-11T07:42:37;62.33;;;26.87;;
20653;SDS011;21083;50.898;4.902;2024-01-11T07:45:04;61.83;;;25.30;;
20653;SDS011;21083;50.898;4.902;2024-01-11T07:47:32;69.78;;;26.98;;
20653;SDS011;21083;50.898;4.902;2024-01-11T07:50:00;60.90;;;25.83;;
20653;SDS011;21083;50.898;4.902;2024-01-11T07:52:30;63.05;;;27.52;;
20653;SDS011;21083;50.898;4.902;2024-01-11T07:54:56;53.90;;;25.08;;
20653;SDS011;21083;50.898;4.902;2024-01-11T07:57:31;68.03;;;27.37;;
20653;SDS011;21083;50.898;4.902;2024-01-11T07:59:58;60.05;;;26.20;;
20653;SDS011;21083;50.898;4.902;2024-01-11T08:02:25;59.65;;;26.23;;
20653;SDS011;21083;50.898;4.902;2024-01-11T08:04:53;61.28;;;25.40;;
20653;SDS011;21083;50.898;4.902;2024-01-11T08:07:20;58.23;;;25.33;;
20653;SDS011;21083;50.898;4.902;2024-01-11T08:09:48;54.03;;;24.70;;
20653;SDS011;21083;50.898;4.902;2024-01-11T08:12:15;59.43;;;25.80;;
20653;SDS011;21083;50.898;4.902;2024-01-11T08:14:42;61.45;;;27.52;;
20653;SDS011;21083;50.898;4.902;2024-01-11T08:17:11;59.83;;;26.87;;
20653;SDS011;21083;50.898;4.902;2024-01-11T08:19:39;63.33;;;26.30;;
20653;SDS011;21083;50.898;4.902;2024-01-11T08:22:08;56.70;;;27.03;;
20653;SDS011;21083;50.898;4.902;2024-01-11T08:24:35;62.13;;;23.30;;
20653;SDS011;21083;50.898;4.902;2024-01-11T08:27:03;62.13;;;28.17;;
20653;SDS011;21083;50.898;4.902;2024-01-11T08:29:30;62.83;;;27.53;;
20653;SDS011;21083;50.898;4.902;2024-01-11T08:31:58;63.78;;;27.23;;
20653;SDS011;21083;50.898;4.902;2024-01-11T08:34:26;64.57;;;29.43;;
20653;SDS011;21083;50.898;4.902;2024-01-11T08:36:53;61.25;;;28.55;;
20653;SDS011;21083;50.898;4.902;2024-01-11T08:39:20;64.43;;;28.30;;
20653;SDS011;21083;50.898;4.902;2024-01-11T08:41:48;62.93;;;28.63;;
20653;SDS011;21083;50.898;4.902;2024-01-11T08:44:16;64.23;;;29.33;;
20653;SDS011;21083;50.898;4.902;2024-01-11T08:46:43;67.13;;;29.70;;
20653;SDS011;21083;50.898;4.902;2024-01-11T08:49:10;66.47;;;28.43;;
20653;SDS011;21083;50.898;4.902;2024-01-11T08:51:37;62.47;;;27.17;;
20653;SDS011;21083;50.898;4.902;2024-01-11T08:54:06;65.23;;;29.13;;
20653;SDS011;21083;50.898;4.902;2024-01-11T08:56:34;63.63;;;30.38;;
20653;SDS011;21083;50.898;4.902;2024-01-11T08:59:02;72.80;;;29.70;;
20653;SDS011;21083;50.898;4.902;2024-01-11T09:01:30;62.70;;;29.00;;
20653;SDS011;21083;50.898;4.902;2024-01-11T09:03:57;69.57;;;29.60;;
20653;SDS011;21083;50.898;4.902;2024-01-11T09:06:24;78.18;;;29.95;;
20653;SDS011;21083;50.898;4.902;2024-01-11T09:08:52;61.33;;;28.85;;
20653;SDS011;21083;50.898;4.902;2024-01-11T09:11:19;65.70;;;29.20;;
20653;SDS011;21083;50.898;4.902;2024-01-11T09:13:46;65.57;;;28.80;;
20653;SDS011;21083;50.898;4.902;2024-01-11T09:16:14;65.60;;;29.80;;
20653;SDS011;21083;50.898;4.902;2024-01-11T09:18:43;61.42;;;29.23;;
20653;SDS011;21083;50.898;4.902;2024-01-11T09:21:11;63.83;;;28.85;;
20653;SDS011;21083;50.898;4.902;2024-01-11T09:23:38;59.60;;;28.67;;
20653;SDS011;21083;50.898;4.902;2024-01-11T09:26:05;61.10;;;29.55;;
20653;SDS011;21083;50.898;4.902;2024-01-11T09:28:32;61.00;;;29.30;;
20653;SDS011;21083;50.898;4.902;2024-01-11T09:30:59;65.80;;;29.13;;
20653;SDS011;21083;50.898;4.902;2024-01-11T09:33:27;61.95;;;28.35;;
20653;SDS011;21083;50.898;4.902;2024-01-11T09:35:55;69.85;;;30.08;;
20653;SDS011;21083;50.898;4.902;2024-01-11T09:38:22;63.47;;;28.50;;
20653;SDS011;21083;50.898;4.902;2024-01-11T09:40:50;62.15;;;28.38;;
20653;SDS011;21083;50.898;4.902;2024-01-11T09:43:24;62.23;;;27.90;;
20653;SDS011;21083;50.898;4.902;2024-01-11T09:45:51;61.60;;;27.98;;
20653;SDS011;21083;50.898;4.902;2024-01-11T09:48:20;63.63;;;28.45;;
20653;SDS011;21083;50.898;4.902;2024-01-11T09:50:48;69.75;;;30.15;;
20653;SDS011;21083;50.898;4.902;2024-01-11T09:53:17;64.10;;;30.20;;
20653;SDS011;21083;50.898;4.902;2024-01-11T09:55:48;65.32;;;27.80;;
20653;SDS011;21083;50.898;4.902;2024-01-11T09:58:17;65.05;;;28.77;;
20653;SDS011;21083;50.898;4.902;2024-01-11T10:00:44;60.15;;;29.27;;
20653;SDS011;21083;50.898;4.902;2024-01-11T10:03:13;62.10;;;28.27;;
20653;SDS011;21083;50.898;4.902;2024-01-11T10:05:40;68.18;;;28.63;;
20653;SDS011;21083;50.898;4.902;2024-01-11T10:08:08;63.25;;;28.83;;
20653;SDS011;21083;50.898;4.902;2024-01-11T10:10:37;60.67;;;27.90;;
20653;SDS011;21083;50.898;4.902;2024-01-11T10:13:05;63.92;;;28.85;;
20653;SDS011;21083;50.898;4.902;2024-01-11T10:15:32;60.35;;;27.90;;
20653;SDS011;21083;50.898;4.902;2024-01-11T10:17:59;64.93;;;28.08;;
20653;SDS011;21083;50.898;4.902;2024-01-11T10:20:26;66.38;;;29.08;;
20653;SDS011;21083;50.898;4.902;2024-01-11T10:22:55;66.43;;;29.73;;
20653;SDS011;21083;50.898;4.902;2024-01-11T10:25:23;61.95;;;29.60;;
20653;SDS011;21083;50.898;4.902;2024-01-11T10:27:52;67.07;;;30.13;;
20653;SDS011;21083;50.898;4.902;2024-01-11T10:30:19;66.88;;;31.38;;
20653;SDS011;21083;50.898;4.902;2024-01-11T10:32:47;64.32;;;31.08;;
20653;SDS011;21083;50.898;4.902;2024-01-11T10:35:15;63.63;;;30.50;;
20653;SDS011;21083;50.898;4.902;2024-01-11T10:37:44;65.95;;;31.60;;
20653;SDS011;21083;50.898;4.902;2024-01-11T10:40:11;64.60;;;31.67;;
20653;SDS011;21083;50.898;4.902;2024-01-11T10:42:40;61.15;;;31.13;;
20653;SDS011;21083;50.898;4.902;2024-01-11T10:45:10;64.57;;;31.10;;
20653;SDS011;21083;50.898;4.902;2024-01-11T10:47:43;59.28;;;30.63;;
20653;SDS011;21083;50.898;4.902;2024-01-11T10:50:17;69.07;;;30.60;;
20653;SDS011;21083;50.898;4.902;2024-01-11T10:52:48;61.00;;;30.08;;
20653;SDS011;21083;50.898;4.902;2024-01-11T10:55:28;62.55;;;30.92;;
20653;SDS011;21083;50.898;4.902;2024-01-11T10:57:58;62.28;;;29.95;;
20653;SDS011;21083;50.898;4.902;2024-01-11T11:00:28;56.03;;;28.58;;
20653;SDS011;21083;50.898;4.902;2024-01-11T11:02:55;53.65;;;27.73;;
20653;SDS011;21083;50.898;4.902;2024-01-11T11:05:25;52.13;;;25.02;;
20653;SDS011;21083;50.898;4.902;2024-01-11T11:07:53;55.53;;;26.08;;
20653;SDS011;21083;50.898;4.902;2024-01-11T11:10:22;57.67;;;26.50;;
20653;SDS011;21083;50.898;4.902;2024-01-11T11:12:51;49.35;;;24.15;;
20653;SDS011;21083;50.898;4.902;2024-01-11T11:15:20;55.00;;;25.10;;
20653;SDS011;21083;50.898;4.902;2024-01-11T11:17:51;49.42;;;25.98;;
20653;SDS011;21083;50.898;4.902;2024-01-11T11:20:18;47.53;;;24.52;;
20653;SDS011;21083;50.898;4.902;2024-01-11T11:22:48;54.35;;;26.55;;
20653;SDS011;21083;50.898;4.902;2024-01-11T11:25:23;51.80;;;24.48;;
20653;SDS011;21083;50.898;4.902;2024-01-11T11:27:51;48.95;;;24.80;;
20653;SDS011;21083;50.898;4.902;2024-01-11T11:30:19;42.45;;;22.45;;
20653;SDS011;21083;50.898;4.902;2024-01-11T11:32:46;47.63;;;23.88;;
20653;SDS011;21083;50.898;4.902;2024-01-11T11:35:14;44.22;;;22.48;;
20653;SDS011;21083;50.898;4.902;2024-01-11T11:37:41;42.55;;;22.00;;
20653;SDS011;21083;50.898;4.902;2024-01-11T11:40:09;50.20;;;22.52;;
20653;SDS011;21083;50.898;4.902;2024-01-11T11:42:36;45.88;;;22.45;;
20653;SDS011;21083;50.898;4.902;2024-01-11T11:45:04;42.25;;;22.98;;
20653;SDS011;21083;50.898;4.902;2024-01-11T11:47:33;45.50;;;22.00;;
20653;SDS011;21083;50.898;4.902;2024-01-11T11:50:05;44.90;;;22.63;;
20653;SDS011;21083;50.898;4.902;2024-01-11T11:52:36;43.05;;;22.63;;
20653;SDS011;21083;50.898;4.902;2024-01-11T11:55:04;61.30;;;22.85;;
20653;SDS011;21083;50.898;4.902;2024-01-11T11:57:33;44.35;;;21.65;;
20653;SDS011;21083;50.898;4.902;2024-01-11T12:00:01;40.45;;;20.52;;
20653;SDS011;21083;50.898;4.902;2024-01-11T12:02:31;40.35;;;21.30;;
20653;SDS011;21083;50.898;4.902;2024-01-11T12:05:01;39.83;;;20.10;;
20653;SDS011;21083;50.898;4.902;2024-01-11T12:07:29;41.75;;;21.05;;
20653;SDS011;21083;50.898;4.902;2024-01-11T12:09:57;40.75;;;21.08;;
20653;SDS011;21083;50.898;4.902;2024-01-11T12:12:24;40.58;;;20.73;;
20653;SDS011;21083;50.898;4.902;2024-01-11T12:14:52;41.45;;;21.10;;
20653;SDS011;21083;50.898;4.902;2024-01-11T12:17:19;38.25;;;20.08;;
20653;SDS011;21083;50.898;4.902;2024-01-11T12:19:46;42.38;;;21.05;;
20653;SDS011;21083;50.898;4.902;2024-01-11T12:22:14;37.47;;;19.73;;
20653;SDS011;21083;50.898;4.902;2024-01-11T12:24:41;35.63;;;18.92;;
20653;SDS011;21083;50.898;4.902;2024-01-11T12:27:09;42.92;;;20.23;;
20653;SDS011;21083;50.898;4.902;2024-01-11T12:29:38;33.97;;;18.98;;
20653;SDS011;21083;50.898;4.902;2024-01-11T12:32:05;36.30;;;19.52;;
20653;SDS011;21083;50.898;4.902;2024-01-11T12:34:32;36.25;;;18.85;;
20653;SDS011;21083;50.898;4.902;2024-01-11T12:37:00;38.80;;;20.13;;
20653;SDS011;21083;50.898;4.902;2024-01-11T12:39:30;38.67;;;19.52;;
20653;SDS011;21083;50.898;4.902;2024-01-11T12:41:57;35.47;;;18.52;;
20653;SDS011;21083;50.898;4.902;2024-01-11T12:44:26;32.85;;;18.20;;
20653;SDS011;21083;50.898;4.902;2024-01-11T12:46:53;38.80;;;19.40;;
20653;SDS011;21083;50.898;4.902;2024-01-11T12:49:21;41.60;;;19.40;;
20653;SDS011;21083;50.898;4.902;2024-01-11T12:51:49;35.00;;;17.98;;
20653;SDS011;21083;50.898;4.902;2024-01-11T12:54:16;32.92;;;18.25;;
20653;SDS011;21083;50.898;4.902;2024-01-11T12:56:44;38.58;;;18.15;;
20653;SDS011;21083;50.898;4.902;2024-01-11T12:59:12;32.55;;;17.20;;
20653;SDS011;21083;50.898;4.902;2024-01-11T13:01:42;32.28;;;18.27;;
20653;SDS011;21083;50.898;4.902;2024-01-11T13:04:09;32.47;;;17.48;;
20653;SDS011;21083;50.898;4.902;2024-01-11T13:06:37;34.55;;;17.75;;
20653;SDS011;21083;50.898;4.902;2024-01-11T13:09:04;35.65;;;18.17;;
20653;SDS011;21083;50.898;4.902;2024-01-11T13:11:33;31.92;;;17.95;;
20653;SDS011;21083;50.898;4.902;2024-01-11T13:14:00;31.27;;;17.80;;
20653;SDS011;21083;50.898;4.902;2024-01-11T13:16:31;31.77;;;18.33;;
20653;SDS011;21083;50.898;4.902;2024-01-11T13:19:00;29.27;;;16.40;;
20653;SDS011;21083;50.898;4.902;2024-01-11T13:21:27;34.53;;;18.23;;
20653;SDS011;21083;50.898;4.902;2024-01-11T13:23:55;32.55;;;17.55;;
20653;SDS011;21083;50.898;4.902;2024-01-11T13:26:22;36.65;;;18.60;;
20653;SDS011;21083;50.898;4.902;2024-01-11T13:28:49;33.22;;;18.02;;
20653;SDS011;21083;50.898;4.902;2024-01-11T13:31:17;29.05;;;16.83;;
20653;SDS011;21083;50.898;4.902;2024-01-11T13:33:45;34.60;;;18.60;;
20653;SDS011;21083;50.898;4.902;2024-01-11T13:36:13;33.20;;;18.40;;
20653;SDS011;21083;50.898;4.902;2024-01-11T13:38:40;31.55;;;17.05;;
20653;SDS011;21083;50.898;4.902;2024-01-11T13:41:07;35.70;;;18.05;;
20653;SDS011;21083;50.898;4.902;2024-01-11T13:43:34;31.42;;;16.85;;
20653;SDS011;21083;50.898;4.902;2024-01-11T13:46:01;35.38;;;18.58;;
20653;SDS011;21083;50.898;4.902;2024-01-11T13:48:29;31.83;;;17.63;;
20653;SDS011;21083;50.898;4.902;2024-01-11T13:50:57;30.98;;;16.38;;
20653;SDS011;21083;50.898;4.902;2024-01-11T13:53:26;28.88;;;16.00;;
20653;SDS011;21083;50.898;4.902;2024-01-11T13:55:53;31.30;;;17.25;;
20653;SDS011;21083;50.898;4.902;2024-01-11T14:44:34;28.02;;;14.90;;
20653;SDS011;21083;50.898;4.902;2024-01-11T14:47:04;30.70;;;15.32;;
20653;SDS011;21083;50.898;4.902;2024-01-11T14:49:33;28.00;;;14.52;;
20653;SDS011;21083;50.898;4.902;2024-01-11T14:52:00;28.10;;;15.00;;
20653;SDS011;21083;50.898;4.902;2024-01-11T14:54:28;25.67;;;14.55;;
20653;SDS011;21083;50.898;4.902;2024-01-11T14:56:55;28.65;;;15.50;;
20653;SDS011;21083;50.898;4.902;2024-01-11T14:59:23;29.90;;;16.17;;
20653;SDS011;21083;50.898;4.902;2024-01-11T15:01:52;27.63;;;15.68;;
20653;SDS011;21083;50.898;4.902;2024-01-11T15:04:20;26.52;;;15.73;;
20653;SDS011;21083;50.898;4.902;2024-01-11T15:06:47;29.00;;;15.15;;
20653;SDS011;21083;50.898;4.902;2024-01-11T15:09:16;32.47;;;17.63;;